Terminal Aerodrome Forecast
Issued by NWS Birmingham, AL

Home | Current Version | Previous Version | Text Only | Print | Product List | Glossary On
Versions: 1 2 3 4 5 6 7 8 9 10 11 12 13 14 15 16
000
FTUS44 KBMX 220806 AAA
TAFBHM
TAF AMD
KBHM 220806Z 2208/2306 18010KT P6SM SKC
      TEMPO 2208/2210 BKN009
     FM221100 18008KT P6SM OVC008
     FM221400 18010KT P6SM BKN015
     FM221700 19010G16KT P6SM BKN050
     FM230000 16004KT P6SM SCT250=

USA.gov is the U.S. government's official web portal to all federal, state and local government web resources and services.